sensor_id;sensor_type;location;lat;lon;timestamp;P1;durP1;ratioP1;P2;durP2;ratioP2
9142;SDS011;54072;47.410;8.446;2023-03-11T00:00:44;2.07;;;1.90;;
9142;SDS011;54072;47.410;8.446;2023-03-11T00:03:14;1.97;;;1.87;;
9142;SDS011;54072;47.410;8.446;2023-03-11T00:05:43;1.87;;;1.77;;
9142;SDS011;54072;47.410;8.446;2023-03-11T00:08:12;2.10;;;2.00;;
9142;SDS011;54072;47.410;8.446;2023-03-11T00:10:42;2.60;;;2.03;;
9142;SDS011;54072;47.410;8.446;2023-03-11T00:13:11;2.30;;;2.00;;
9142;SDS011;54072;47.410;8.446;2023-03-11T00:15:41;2.27;;;2.07;;
9142;SDS011;54072;47.410;8.446;2023-03-11T00:18:10;2.60;;;2.10;;
9142;SDS011;54072;47.410;8.446;2023-03-11T00:20:38;2.13;;;1.93;;
9142;SDS011;54072;47.410;8.446;2023-03-11T00:23:07;1.90;;;1.80;;
9142;SDS011;54072;47.410;8.446;2023-03-11T00:25:36;2.13;;;2.03;;
9142;SDS011;54072;47.410;8.446;2023-03-11T00:28:04;2.00;;;1.90;;
9142;SDS011;54072;47.410;8.446;2023-03-11T00:30:37;2.10;;;1.93;;
9142;SDS011;54072;47.410;8.446;2023-03-11T00:33:05;2.13;;;1.97;;
9142;SDS011;54072;47.410;8.446;2023-03-11T00:35:34;2.30;;;2.10;;
9142;SDS011;54072;47.410;8.446;2023-03-11T00:38:02;2.23;;;2.00;;
9142;SDS011;54072;47.410;8.446;2023-03-11T00:40:32;2.73;;;2.23;;
9142;SDS011;54072;47.410;8.446;2023-03-11T00:43:01;2.20;;;2.00;;
9142;SDS011;54072;47.410;8.446;2023-03-11T00:45:29;2.40;;;2.20;;
9142;SDS011;54072;47.410;8.446;2023-03-11T00:47:58;2.40;;;2.20;;
9142;SDS011;54072;47.410;8.446;2023-03-11T00:50:27;2.80;;;2.60;;
9142;SDS011;54072;47.410;8.446;2023-03-11T00:52:55;2.40;;;2.20;;
9142;SDS011;54072;47.410;8.446;2023-03-11T00:55:25;2.47;;;2.27;;
9142;SDS011;54072;47.410;8.446;2023-03-11T00:57:54;2.70;;;2.30;;
9142;SDS011;54072;47.410;8.446;2023-03-11T01:00:23;2.47;;;2.27;;
9142;SDS011;54072;47.410;8.446;2023-03-11T01:02:52;2.30;;;2.10;;
9142;SDS011;54072;47.410;8.446;2023-03-11T01:05:25;2.50;;;2.30;;
9142;SDS011;54072;47.410;8.446;2023-03-11T01:07:54;2.20;;;2.10;;
9142;SDS011;54072;47.410;8.446;2023-03-11T01:10:22;3.23;;;2.40;;
9142;SDS011;54072;47.410;8.446;2023-03-11T01:12:50;2.77;;;2.27;;
9142;SDS011;54072;47.410;8.446;2023-03-11T01:15:19;3.03;;;2.73;;
9142;SDS011;54072;47.410;8.446;2023-03-11T01:17:48;2.60;;;2.40;;
9142;SDS011;54072;47.410;8.446;2023-03-11T01:20:16;2.47;;;2.30;;
9142;SDS011;54072;47.410;8.446;2023-03-11T01:22:45;3.20;;;2.63;;
9142;SDS011;54072;47.410;8.446;2023-03-11T01:25:13;3.03;;;2.30;;
9142;SDS011;54072;47.410;8.446;2023-03-11T01:27:42;2.47;;;2.27;;
9142;SDS011;54072;47.410;8.446;2023-03-11T01:30:12;3.10;;;2.53;;
9142;SDS011;54072;47.410;8.446;2023-03-11T01:32:41;2.70;;;2.50;;
9142;SDS011;54072;47.410;8.446;2023-03-11T01:35:09;3.47;;;2.60;;
9142;SDS011;54072;47.410;8.446;2023-03-11T01:37:37;3.13;;;2.60;;
9142;SDS011;54072;47.410;8.446;2023-03-11T01:40:10;3.53;;;2.40;;
9142;SDS011;54072;47.410;8.446;2023-03-11T01:42:40;3.93;;;2.47;;
9142;SDS011;54072;47.410;8.446;2023-03-11T01:45:25;2.90;;;2.60;;
9142;SDS011;54072;47.410;8.446;2023-03-11T01:47:57;2.70;;;2.43;;
9142;SDS011;54072;47.410;8.446;2023-03-11T01:50:26;3.00;;;2.70;;
9142;SDS011;54072;47.410;8.446;2023-03-11T01:52:57;2.60;;;2.40;;
9142;SDS011;54072;47.410;8.446;2023-03-11T01:55:26;2.70;;;2.50;;
9142;SDS011;54072;47.410;8.446;2023-03-11T01:57:54;2.90;;;2.70;;
9142;SDS011;54072;47.410;8.446;2023-03-11T02:00:23;2.70;;;2.50;;
9142;SDS011;54072;47.410;8.446;2023-03-11T02:02:51;3.37;;;2.70;;
9142;SDS011;54072;47.410;8.446;2023-03-11T02:05:20;3.37;;;2.83;;
9142;SDS011;54072;47.410;8.446;2023-03-11T02:07:49;2.77;;;2.57;;
9142;SDS011;54072;47.410;8.446;2023-03-11T02:10:17;3.13;;;2.83;;
9142;SDS011;54072;47.410;8.446;2023-03-11T02:12:47;2.77;;;2.57;;
9142;SDS011;54072;47.410;8.446;2023-03-11T02:15:15;3.57;;;2.87;;
9142;SDS011;54072;47.410;8.446;2023-03-11T02:17:43;2.80;;;2.60;;
9142;SDS011;54072;47.410;8.446;2023-03-11T02:20:13;2.70;;;2.50;;
9142;SDS011;54072;47.410;8.446;2023-03-11T02:22:45;2.97;;;2.70;;
9142;SDS011;54072;47.410;8.446;2023-03-11T02:25:17;2.67;;;2.47;;
9142;SDS011;54072;47.410;8.446;2023-03-11T02:27:50;2.80;;;2.60;;
9142;SDS011;54072;47.410;8.446;2023-03-11T02:30:20;3.20;;;2.93;;
9142;SDS011;54072;47.410;8.446;2023-03-11T02:32:48;3.57;;;2.53;;
9142;SDS011;54072;47.410;8.446;2023-03-11T02:35:16;2.80;;;2.60;;
9142;SDS011;54072;47.410;8.446;2023-03-11T02:37:44;3.07;;;2.77;;
9142;SDS011;54072;47.410;8.446;2023-03-11T02:40:27;3.30;;;3.00;;
9142;SDS011;54072;47.410;8.446;2023-03-11T02:43:02;3.23;;;2.93;;
9142;SDS011;54072;47.410;8.446;2023-03-11T02:45:32;2.80;;;2.60;;
9142;SDS011;54072;47.410;8.446;2023-03-11T02:48:01;2.80;;;2.60;;
9142;SDS011;54072;47.410;8.446;2023-03-11T02:50:29;3.63;;;2.83;;
9142;SDS011;54072;47.410;8.446;2023-03-11T02:52:59;4.27;;;2.80;;
9142;SDS011;54072;47.410;8.446;2023-03-11T02:55:27;3.03;;;2.80;;
9142;SDS011;54072;47.410;8.446;2023-03-11T02:57:55;2.80;;;2.60;;
9142;SDS011;54072;47.410;8.446;2023-03-11T03:00:24;3.37;;;3.07;;
9142;SDS011;54072;47.410;8.446;2023-03-11T03:02:52;3.73;;;3.20;;
9142;SDS011;54072;47.410;8.446;2023-03-11T03:05:20;3.13;;;2.83;;
9142;SDS011;54072;47.410;8.446;2023-03-11T03:07:49;2.90;;;2.70;;
9142;SDS011;54072;47.410;8.446;2023-03-11T03:10:18;3.30;;;3.00;;
9142;SDS011;54072;47.410;8.446;2023-03-11T03:12:47;3.20;;;2.90;;
9142;SDS011;54072;47.410;8.446;2023-03-11T03:15:15;3.77;;;3.00;;
9142;SDS011;54072;47.410;8.446;2023-03-11T03:17:44;3.93;;;2.87;;
9142;SDS011;54072;47.410;8.446;2023-03-11T03:20:12;3.33;;;3.03;;
9142;SDS011;54072;47.410;8.446;2023-03-11T03:22:40;3.93;;;3.30;;
9142;SDS011;54072;47.410;8.446;2023-03-11T03:25:08;3.47;;;3.17;;
9142;SDS011;54072;47.410;8.446;2023-03-11T03:27:37;3.67;;;3.27;;
9142;SDS011;54072;47.410;8.446;2023-03-11T03:30:05;3.43;;;3.03;;
9142;SDS011;54072;47.410;8.446;2023-03-11T03:32:34;5.43;;;3.67;;
9142;SDS011;54072;47.410;8.446;2023-03-11T03:35:03;5.07;;;4.57;;
9142;SDS011;54072;47.410;8.446;2023-03-11T03:37:32;4.97;;;4.10;;
9142;SDS011;54072;47.410;8.446;2023-03-11T03:40:01;4.13;;;3.73;;
9142;SDS011;54072;47.410;8.446;2023-03-11T03:42:33;4.50;;;3.83;;
9142;SDS011;54072;47.410;8.446;2023-03-11T03:45:01;4.43;;;3.90;;
9142;SDS011;54072;47.410;8.446;2023-03-11T03:47:30;6.63;;;3.53;;
9142;SDS011;54072;47.410;8.446;2023-03-11T03:49:58;5.03;;;4.53;;
9142;SDS011;54072;47.410;8.446;2023-03-11T03:52:27;6.87;;;4.90;;
9142;SDS011;54072;47.410;8.446;2023-03-11T03:54:55;4.13;;;3.73;;
9142;SDS011;54072;47.410;8.446;2023-03-11T03:57:22;4.23;;;3.83;;
9142;SDS011;54072;47.410;8.446;2023-03-11T03:59:50;4.10;;;3.53;;
9142;SDS011;54072;47.410;8.446;2023-03-11T04:02:18;4.67;;;4.03;;
9142;SDS011;54072;47.410;8.446;2023-03-11T04:04:45;4.00;;;3.60;;
9142;SDS011;54072;47.410;8.446;2023-03-11T04:07:13;3.90;;;3.50;;
9142;SDS011;54072;47.410;8.446;2023-03-11T04:09:42;4.07;;;3.53;;
9142;SDS011;54072;47.410;8.446;2023-03-11T04:12:10;3.87;;;3.43;;
9142;SDS011;54072;47.410;8.446;2023-03-11T04:14:40;5.30;;;3.60;;
9142;SDS011;54072;47.410;8.446;2023-03-11T04:17:08;4.93;;;3.27;;
9142;SDS011;54072;47.410;8.446;2023-03-11T04:19:36;5.43;;;3.80;;
9142;SDS011;54072;47.410;8.446;2023-03-11T04:22:04;6.00;;;3.47;;
9142;SDS011;54072;47.410;8.446;2023-03-11T04:24:32;4.03;;;3.47;;
9142;SDS011;54072;47.410;8.446;2023-03-11T04:27:01;4.00;;;3.60;;
9142;SDS011;54072;47.410;8.446;2023-03-11T04:29:29;4.83;;;3.20;;
9142;SDS011;54072;47.410;8.446;2023-03-11T04:31:57;5.30;;;3.50;;
9142;SDS011;54072;47.410;8.446;2023-03-11T04:34:25;5.83;;;3.83;;
9142;SDS011;54072;47.410;8.446;2023-03-11T04:36:52;4.93;;;4.10;;
9142;SDS011;54072;47.410;8.446;2023-03-11T04:39:20;3.70;;;3.40;;
9142;SDS011;54072;47.410;8.446;2023-03-11T04:41:48;5.03;;;3.27;;
9142;SDS011;54072;47.410;8.446;2023-03-11T04:44:17;4.07;;;3.37;;
9142;SDS011;54072;47.410;8.446;2023-03-11T04:46:45;5.37;;;3.70;;
9142;SDS011;54072;47.410;8.446;2023-03-11T04:49:13;4.80;;;4.00;;
9142;SDS011;54072;47.410;8.446;2023-03-11T04:51:40;4.37;;;3.60;;
9142;SDS011;54072;47.410;8.446;2023-03-11T04:54:08;4.37;;;3.50;;
9142;SDS011;54072;47.410;8.446;2023-03-11T04:56:36;5.77;;;3.87;;
9142;SDS011;54072;47.410;8.446;2023-03-11T04:59:04;4.93;;;3.80;;
9142;SDS011;54072;47.410;8.446;2023-03-11T05:01:33;5.37;;;4.13;;
9142;SDS011;54072;47.410;8.446;2023-03-11T05:04:01;7.73;;;4.17;;
9142;SDS011;54072;47.410;8.446;2023-03-11T05:06:28;5.70;;;4.43;;
9142;SDS011;54072;47.410;8.446;2023-03-11T05:08:56;5.57;;;4.07;;
9142;SDS011;54072;47.410;8.446;2023-03-11T05:11:24;7.43;;;4.03;;
9142;SDS011;54072;47.410;8.446;2023-03-11T05:13:51;6.30;;;4.27;;
9142;SDS011;54072;47.410;8.446;2023-03-11T05:16:19;6.07;;;4.23;;
9142;SDS011;54072;47.410;8.446;2023-03-11T05:18:48;9.07;;;4.37;;
9142;SDS011;54072;47.410;8.446;2023-03-11T05:21:16;8.70;;;4.30;;
9142;SDS011;54072;47.410;8.446;2023-03-11T05:23:44;7.17;;;4.57;;
9142;SDS011;54072;47.410;8.446;2023-03-11T05:26:11;5.40;;;4.33;;
9142;SDS011;54072;47.410;8.446;2023-03-11T05:28:39;5.37;;;4.27;;
9142;SDS011;54072;47.410;8.446;2023-03-11T05:31:07;6.33;;;4.53;;
9142;SDS011;54072;47.410;8.446;2023-03-11T05:33:35;6.27;;;4.57;;
9142;SDS011;54072;47.410;8.446;2023-03-11T05:36:05;9.13;;;4.97;;
9142;SDS011;54072;47.410;8.446;2023-03-11T05:38:34;7.23;;;4.90;;
9142;SDS011;54072;47.410;8.446;2023-03-11T05:41:02;7.30;;;5.03;;
9142;SDS011;54072;47.410;8.446;2023-03-11T05:43:31;7.07;;;5.20;;
9142;SDS011;54072;47.410;8.446;2023-03-11T05:45:59;5.87;;;4.57;;
9142;SDS011;54072;47.410;8.446;2023-03-11T05:48:26;5.97;;;4.67;;
9142;SDS011;54072;47.410;8.446;2023-03-11T05:50:54;9.17;;;5.00;;
9142;SDS011;54072;47.410;8.446;2023-03-11T05:53:23;8.30;;;5.17;;
9142;SDS011;54072;47.410;8.446;2023-03-11T05:55:54;6.97;;;4.30;;
9142;SDS011;54072;47.410;8.446;2023-03-11T05:58:22;7.70;;;4.87;;
9142;SDS011;54072;47.410;8.446;2023-03-11T06:00:50;6.97;;;5.10;;
9142;SDS011;54072;47.410;8.446;2023-03-11T06:03:18;7.10;;;5.07;;
9142;SDS011;54072;47.410;8.446;2023-03-11T06:05:46;7.17;;;5.50;;
9142;SDS011;54072;47.410;8.446;2023-03-11T06:08:18;7.83;;;5.23;;
9142;SDS011;54072;47.410;8.446;2023-03-11T06:10:48;7.87;;;5.90;;
9142;SDS011;54072;47.410;8.446;2023-03-11T06:13:16;8.97;;;6.10;;
9142;SDS011;54072;47.410;8.446;2023-03-11T06:15:43;11.63;;;5.73;;
9142;SDS011;54072;47.410;8.446;2023-03-11T06:18:11;10.83;;;6.73;;
9142;SDS011;54072;47.410;8.446;2023-03-11T06:20:39;8.67;;;5.70;;
9142;SDS011;54072;47.410;8.446;2023-03-11T06:23:07;11.47;;;5.67;;
9142;SDS011;54072;47.410;8.446;2023-03-11T06:25:35;9.47;;;6.17;;
9142;SDS011;54072;47.410;8.446;2023-03-11T06:28:04;10.67;;;6.77;;
9142;SDS011;54072;47.410;8.446;2023-03-11T06:30:32;10.63;;;6.43;;
9142;SDS011;54072;47.410;8.446;2023-03-11T06:33:00;11.03;;;6.67;;
9142;SDS011;54072;47.410;8.446;2023-03-11T06:35:27;10.10;;;6.83;;
9142;SDS011;54072;47.410;8.446;2023-03-11T06:37:55;10.13;;;7.03;;
9142;SDS011;54072;47.410;8.446;2023-03-11T06:40:23;11.33;;;7.27;;
9142;SDS011;54072;47.410;8.446;2023-03-11T06:42:50;13.03;;;7.47;;
9142;SDS011;54072;47.410;8.446;2023-03-11T06:45:19;10.50;;;6.70;;
9142;SDS011;54072;47.410;8.446;2023-03-11T06:47:47;11.27;;;7.17;;
9142;SDS011;54072;47.410;8.446;2023-03-11T06:50:15;11.23;;;7.20;;
9142;SDS011;54072;47.410;8.446;2023-03-11T06:52:43;9.23;;;6.40;;
9142;SDS011;54072;47.410;8.446;2023-03-11T06:55:10;10.37;;;6.93;;
9142;SDS011;54072;47.410;8.446;2023-03-11T06:57:38;11.67;;;7.33;;
9142;SDS011;54072;47.410;8.446;2023-03-11T07:00:07;13.00;;;7.77;;
9142;SDS011;54072;47.410;8.446;2023-03-11T07:02:39;11.83;;;7.43;;
9142;SDS011;54072;47.410;8.446;2023-03-11T07:05:07;13.33;;;7.40;;
9142;SDS011;54072;47.410;8.446;2023-03-11T07:07:35;13.00;;;7.53;;
9142;SDS011;54072;47.410;8.446;2023-03-11T07:10:03;12.23;;;7.70;;
9142;SDS011;54072;47.410;8.446;2023-03-11T07:12:31;14.60;;;7.67;;
9142;SDS011;54072;47.410;8.446;2023-03-11T07:14:59;12.63;;;7.73;;
9142;SDS011;54072;47.410;8.446;2023-03-11T07:17:27;11.47;;;7.53;;
9142;SDS011;54072;47.410;8.446;2023-03-11T07:19:56;10.20;;;7.03;;
9142;SDS011;54072;47.410;8.446;2023-03-11T07:22:24;7.07;;;4.90;;
9142;SDS011;54072;47.410;8.446;2023-03-11T07:24:52;3.60;;;3.30;;
9142;SDS011;54072;47.410;8.446;2023-03-11T07:27:20;3.57;;;2.80;;
9142;SDS011;54072;47.410;8.446;2023-03-11T07:29:48;3.23;;;2.70;;
9142;SDS011;54072;47.410;8.446;2023-03-11T07:32:16;2.57;;;1.70;;
9142;SDS011;54072;47.410;8.446;2023-03-11T07:34:44;4.03;;;2.07;;
9142;SDS011;54072;47.410;8.446;2023-03-11T07:37:13;2.20;;;2.00;;
9142;SDS011;54072;47.410;8.446;2023-03-11T07:39:40;1.60;;;1.50;;
9142;SDS011;54072;47.410;8.446;2023-03-11T07:42:08;2.33;;;1.80;;
9142;SDS011;54072;47.410;8.446;2023-03-11T07:44:36;1.73;;;1.30;;
9142;SDS011;54072;47.410;8.446;2023-03-11T07:47:04;1.70;;;1.60;;
9142;SDS011;54072;47.410;8.446;2023-03-11T07:49:32;1.63;;;1.53;;
9142;SDS011;54072;47.410;8.446;2023-03-11T07:51:59;1.90;;;1.77;;
9142;SDS011;54072;47.410;8.446;2023-03-11T07:54:28;1.63;;;1.43;;
9142;SDS011;54072;47.410;8.446;2023-03-11T07:56:56;1.80;;;1.70;;
9142;SDS011;54072;47.410;8.446;2023-03-11T07:59:24;2.97;;;1.70;;
9142;SDS011;54072;47.410;8.446;2023-03-11T08:01:51;2.90;;;1.50;;
9142;SDS011;54072;47.410;8.446;2023-03-11T08:04:19;3.73;;;2.03;;
9142;SDS011;54072;47.410;8.446;2023-03-11T08:06:47;2.27;;;1.77;;
9142;SDS011;54072;47.410;8.446;2023-03-11T08:09:15;5.53;;;2.10;;
9142;SDS011;54072;47.410;8.446;2023-03-11T08:11:44;3.53;;;1.80;;
9142;SDS011;54072;47.410;8.446;2023-03-11T08:14:13;3.00;;;1.97;;
9142;SDS011;54072;47.410;8.446;2023-03-11T08:16:41;4.43;;;1.93;;
9142;SDS011;54072;47.410;8.446;2023-03-11T08:19:10;3.97;;;1.80;;
9142;SDS011;54072;47.410;8.446;2023-03-11T08:21:38;3.00;;;2.10;;
9142;SDS011;54072;47.410;8.446;2023-03-11T08:24:06;3.47;;;2.17;;
9142;SDS011;54072;47.410;8.446;2023-03-11T08:26:34;5.47;;;3.20;;
9142;SDS011;54072;47.410;8.446;2023-03-11T08:29:03;3.77;;;2.40;;
9142;SDS011;54072;47.410;8.446;2023-03-11T08:31:31;2.77;;;2.20;;
9142;SDS011;54072;47.410;8.446;2023-03-11T08:34:02;5.60;;;2.30;;
9142;SDS011;54072;47.410;8.446;2023-03-11T08:36:31;5.57;;;2.47;;
9142;SDS011;54072;47.410;8.446;2023-03-11T08:38:59;4.17;;;2.20;;
9142;SDS011;54072;47.410;8.446;2023-03-11T08:41:27;3.33;;;2.23;;
9142;SDS011;54072;47.410;8.446;2023-03-11T08:43:55;3.53;;;2.27;;
9142;SDS011;54072;47.410;8.446;2023-03-11T08:46:24;3.80;;;2.30;;
9142;SDS011;54072;47.410;8.446;2023-03-11T08:48:53;5.13;;;2.27;;
9142;SDS011;54072;47.410;8.446;2023-03-11T08:51:24;6.40;;;2.30;;
9142;SDS011;54072;47.410;8.446;2023-03-11T08:53:52;3.20;;;2.57;;
9142;SDS011;54072;47.410;8.446;2023-03-11T08:56:20;4.30;;;2.30;;
9142;SDS011;54072;47.410;8.446;2023-03-11T08:58:48;2.30;;;2.10;;
9142;SDS011;54072;47.410;8.446;2023-03-11T09:01:16;3.03;;;2.60;;
9142;SDS011;54072;47.410;8.446;2023-03-11T09:03:46;4.60;;;2.33;;
9142;SDS011;54072;47.410;8.446;2023-03-11T09:06:14;5.37;;;3.10;;
9142;SDS011;54072;47.410;8.446;2023-03-11T09:08:43;4.57;;;2.30;;
9142;SDS011;54072;47.410;8.446;2023-03-11T09:11:11;6.00;;;2.90;;
9142;SDS011;54072;47.410;8.446;2023-03-11T09:13:39;4.90;;;3.40;;
9142;SDS011;54072;47.410;8.446;2023-03-11T09:16:08;6.73;;;3.97;;
9142;SDS011;54072;47.410;8.446;2023-03-11T09:18:36;4.50;;;3.00;;
9142;SDS011;54072;47.410;8.446;2023-03-11T09:21:05;3.53;;;2.83;;
9142;SDS011;54072;47.410;8.446;2023-03-11T09:23:33;4.70;;;3.60;;
9142;SDS011;54072;47.410;8.446;2023-03-11T09:26:01;5.73;;;3.10;;
9142;SDS011;54072;47.410;8.446;2023-03-11T09:28:29;4.37;;;2.90;;
9142;SDS011;54072;47.410;8.446;2023-03-11T09:30:56;3.70;;;3.30;;
9142;SDS011;54072;47.410;8.446;2023-03-11T09:33:24;4.90;;;3.27;;
9142;SDS011;54072;47.410;8.446;2023-03-11T09:35:52;4.63;;;3.00;;
9142;SDS011;54072;47.410;8.446;2023-03-11T09:38:21;5.87;;;3.13;;
9142;SDS011;54072;47.410;8.446;2023-03-11T09:40:51;5.37;;;3.33;;
9142;SDS011;54072;47.410;8.446;2023-03-11T09:46:25;3.53;;;2.93;;
9142;SDS011;54072;47.410;8.446;2023-03-11T09:49:13;3.93;;;2.97;;
9142;SDS011;54072;47.410;8.446;2023-03-11T09:51:49;3.37;;;2.53;;
9142;SDS011;54072;47.410;8.446;2023-03-11T09:54:22;5.33;;;3.20;;
9142;SDS011;54072;47.410;8.446;2023-03-11T09:56:50;3.97;;;3.10;;
9142;SDS011;54072;47.410;8.446;2023-03-11T09:59:18;3.43;;;3.13;;
9142;SDS011;54072;47.410;8.446;2023-03-11T10:01:49;3.90;;;3.30;;
9142;SDS011;54072;47.410;8.446;2023-03-11T10:04:18;5.33;;;2.90;;
9142;SDS011;54072;47.410;8.446;2023-03-11T10:06:49;4.57;;;3.17;;
9142;SDS011;54072;47.410;8.446;2023-03-11T10:12:08;4.27;;;2.90;;
9142;SDS011;54072;47.410;8.446;2023-03-11T10:14:46;5.20;;;3.07;;
9142;SDS011;54072;47.410;8.446;2023-03-11T10:17:23;7.03;;;2.90;;
9142;SDS011;54072;47.410;8.446;2023-03-11T10:20:03;3.77;;;3.07;;
9142;SDS011;54072;47.410;8.446;2023-03-11T10:22:36;3.60;;;2.73;;
9142;SDS011;54072;47.410;8.446;2023-03-11T10:25:10;2.70;;;2.50;;
9142;SDS011;54072;47.410;8.446;2023-03-11T10:27:41;7.10;;;3.23;;
9142;SDS011;54072;47.410;8.446;2023-03-11T10:30:14;6.13;;;2.93;;
9142;SDS011;54072;47.410;8.446;2023-03-11T10:32:47;5.27;;;3.13;;
9142;SDS011;54072;47.410;8.446;2023-03-11T10:35:19;5.50;;;3.73;;
9142;SDS011;54072;47.410;8.446;2023-03-11T10:37:50;4.80;;;3.57;;
9142;SDS011;54072;47.410;8.446;2023-03-11T10:40:27;4.83;;;3.10;;
9142;SDS011;54072;47.410;8.446;2023-03-11T10:42:57;4.23;;;2.90;;
9142;SDS011;54072;47.410;8.446;2023-03-11T10:45:27;5.13;;;3.30;;
9142;SDS011;54072;47.410;8.446;2023-03-11T10:47:59;4.40;;;3.30;;
9142;SDS011;54072;47.410;8.446;2023-03-11T10:50:26;7.43;;;3.87;;
9142;SDS011;54072;47.410;8.446;2023-03-11T10:53:04;7.03;;;3.33;;
9142;SDS011;54072;47.410;8.446;2023-03-11T10:55:35;4.03;;;3.30;;
9142;SDS011;54072;47.410;8.446;2023-03-11T10:58:13;3.70;;;3.40;;
9142;SDS011;54072;47.410;8.446;2023-03-11T11:00:42;5.67;;;3.27;;
9142;SDS011;54072;47.410;8.446;2023-03-11T11:03:11;4.03;;;3.63;;
9142;SDS011;54072;47.410;8.446;2023-03-11T11:05:44;3.50;;;3.20;;
9142;SDS011;54072;47.410;8.446;2023-03-11T11:08:24;5.80;;;3.70;;
9142;SDS011;54072;47.410;8.446;2023-03-11T11:10:53;4.13;;;3.70;;
9142;SDS011;54072;47.410;8.446;2023-03-11T11:13:22;4.70;;;3.47;;
9142;SDS011;54072;47.410;8.446;2023-03-11T11:15:52;5.10;;;3.40;;
9142;SDS011;54072;47.410;8.446;2023-03-11T11:18:22;3.93;;;3.60;;
9142;SDS011;54072;47.410;8.446;2023-03-11T11:20:58;6.53;;;4.63;;
9142;SDS011;54072;47.410;8.446;2023-03-11T11:23:37;4.07;;;3.67;;
9142;SDS011;54072;47.410;8.446;2023-03-11T11:26:14;4.23;;;3.67;;
9142;SDS011;54072;47.410;8.446;2023-03-11T11:28:43;4.40;;;3.80;;
9142;SDS011;54072;47.410;8.446;2023-03-11T11:31:18;6.43;;;4.40;;
9142;SDS011;54072;47.410;8.446;2023-03-11T11:33:49;6.17;;;4.10;;
9142;SDS011;54072;47.410;8.446;2023-03-11T11:36:19;4.73;;;4.00;;
9142;SDS011;54072;47.410;8.446;2023-03-11T11:38:50;7.90;;;4.30;;
9142;SDS011;54072;47.410;8.446;2023-03-11T11:41:20;4.13;;;3.73;;
9142;SDS011;54072;47.410;8.446;2023-03-11T11:43:50;4.37;;;3.93;;
9142;SDS011;54072;47.410;8.446;2023-03-11T11:46:20;4.80;;;3.97;;
9142;SDS011;54072;47.410;8.446;2023-03-11T11:48:53;4.63;;;3.77;;
9142;SDS011;54072;47.410;8.446;2023-03-11T11:51:27;5.43;;;4.30;;
9142;SDS011;54072;47.410;8.446;2023-03-11T11:53:57;7.20;;;4.23;;
9142;SDS011;54072;47.410;8.446;2023-03-11T11:56:28;4.97;;;4.47;;
9142;SDS011;54072;47.410;8.446;2023-03-11T11:58:56;7.37;;;4.17;;
9142;SDS011;54072;47.410;8.446;2023-03-11T12:01:29;5.70;;;4.50;;
9142;SDS011;54072;47.410;8.446;2023-03-11T12:04:04;5.40;;;4.43;;
9142;SDS011;54072;47.410;8.446;2023-03-11T12:06:46;6.10;;;4.63;;
9142;SDS011;54072;47.410;8.446;2023-03-11T12:09:19;6.30;;;4.47;;
9142;SDS011;54072;47.410;8.446;2023-03-11T12:11:56;5.43;;;4.50;;
9142;SDS011;54072;47.410;8.446;2023-03-11T12:14:27;6.13;;;4.57;;
9142;SDS011;54072;47.410;8.446;2023-03-11T12:16:58;4.47;;;4.07;;
9142;SDS011;54072;47.410;8.446;2023-03-11T12:19:33;4.63;;;3.97;;
9142;SDS011;54072;47.410;8.446;2023-03-11T12:22:14;4.60;;;4.10;;
9142;SDS011;54072;47.410;8.446;2023-03-11T12:27:52;4.30;;;3.90;;
9142;SDS011;54072;47.410;8.446;2023-03-11T12:30:25;5.00;;;3.53;;
9142;SDS011;54072;47.410;8.446;2023-03-11T12:32:55;4.40;;;3.90;;
9142;SDS011;54072;47.410;8.446;2023-03-11T12:35:25;4.90;;;4.10;;
9142;SDS011;54072;47.410;8.446;2023-03-11T12:37:54;5.87;;;4.30;;
9142;SDS011;54072;47.410;8.446;2023-03-11T12:40:47;5.13;;;3.80;;
9142;SDS011;54072;47.410;8.446;2023-03-11T12:43:24;4.20;;;3.80;;
9142;SDS011;54072;47.410;8.446;2023-03-11T12:45:55;4.00;;;3.40;;
9142;SDS011;54072;47.410;8.446;2023-03-11T12:48:31;3.93;;;3.57;;
9142;SDS011;54072;47.410;8.446;2023-03-11T12:51:00;3.70;;;3.40;;
9142;SDS011;54072;47.410;8.446;2023-03-11T12:53:41;3.70;;;3.40;;
9142;SDS011;54072;47.410;8.446;2023-03-11T12:56:12;3.67;;;3.30;;
9142;SDS011;54072;47.410;8.446;2023-03-11T12:58:56;3.70;;;3.20;;
9142;SDS011;54072;47.410;8.446;2023-03-11T13:04:28;5.00;;;3.43;;
9142;SDS011;54072;47.410;8.446;2023-03-11T13:10:00;3.40;;;3.10;;
9142;SDS011;54072;47.410;8.446;2023-03-11T13:12:39;3.87;;;3.50;;
9142;SDS011;54072;47.410;8.446;2023-03-11T13:18:17;3.70;;;3.03;;
9142;SDS011;54072;47.410;8.446;2023-03-11T13:20:53;3.17;;;2.90;;
9142;SDS011;54072;47.410;8.446;2023-03-11T13:23:31;3.53;;;3.27;;
9142;SDS011;54072;47.410;8.446;2023-03-11T13:29:14;3.10;;;2.80;;
9142;SDS011;54072;47.410;8.446;2023-03-11T13:32:19;3.40;;;3.10;;
9142;SDS011;54072;47.410;8.446;2023-03-11T13:35:09;3.47;;;2.90;;
9142;SDS011;54072;47.410;8.446;2023-03-11T13:37:43;3.30;;;3.00;;
9142;SDS011;54072;47.410;8.446;2023-03-11T13:40:24;3.60;;;3.30;;
9142;SDS011;54072;47.410;8.446;2023-03-11T13:42:56;3.00;;;2.60;;
9142;SDS011;54072;47.410;8.446;2023-03-11T13:45:29;4.33;;;3.10;;
9142;SDS011;54072;47.410;8.446;2023-03-11T13:48:03;2.73;;;2.43;;
9142;SDS011;54072;47.410;8.446;2023-03-11T13:50:34;3.00;;;2.60;;
9142;SDS011;54072;47.410;8.446;2023-03-11T13:53:05;3.00;;;2.70;;
9142;SDS011;54072;47.410;8.446;2023-03-11T13:55:35;2.67;;;2.47;;
9142;SDS011;54072;47.410;8.446;2023-03-11T13:58:13;2.63;;;2.43;;
9142;SDS011;54072;47.410;8.446;2023-03-11T14:00:46;3.30;;;3.00;;
9142;SDS011;54072;47.410;8.446;2023-03-11T14:03:16;3.37;;;2.87;;
9142;SDS011;54072;47.410;8.446;2023-03-11T14:05:47;4.17;;;3.00;;
9142;SDS011;54072;47.410;8.446;2023-03-11T14:08:18;3.20;;;2.80;;
9142;SDS011;54072;47.410;8.446;2023-03-11T14:10:52;2.47;;;2.27;;
9142;SDS011;54072;47.410;8.446;2023-03-11T14:13:20;2.70;;;2.40;;
9142;SDS011;54072;47.410;8.446;2023-03-11T14:15:56;3.33;;;2.43;;
9142;SDS011;54072;47.410;8.446;2023-03-11T14:18:34;3.23;;;2.80;;
9142;SDS011;54072;47.410;8.446;2023-03-11T14:21:04;4.37;;;2.80;;
9142;SDS011;54072;47.410;8.446;2023-03-11T14:23:34;2.87;;;2.67;;
9142;SDS011;54072;47.410;8.446;2023-03-11T14:26:06;3.37;;;2.93;;
9142;SDS011;54072;47.410;8.446;2023-03-11T14:28:36;3.20;;;2.90;;
9142;SDS011;54072;47.410;8.446;2023-03-11T14:31:06;3.03;;;2.83;;
9142;SDS011;54072;47.410;8.446;2023-03-11T14:33:35;3.80;;;3.47;;
9142;SDS011;54072;47.410;8.446;2023-03-11T14:36:04;3.40;;;3.10;;
9142;SDS011;54072;47.410;8.446;2023-03-11T14:38:33;5.43;;;3.33;;
9142;SDS011;54072;47.410;8.446;2023-03-11T14:41:01;3.23;;;2.97;;
9142;SDS011;54072;47.410;8.446;2023-03-11T14:43:31;3.30;;;3.00;;
9142;SDS011;54072;47.410;8.446;2023-03-11T14:46:00;2.80;;;2.60;;
9142;SDS011;54072;47.410;8.446;2023-03-11T14:48:29;3.53;;;3.00;;
9142;SDS011;54072;47.410;8.446;2023-03-11T14:50:59;2.80;;;2.60;;
9142;SDS011;54072;47.410;8.446;2023-03-11T14:53:31;3.33;;;2.67;;
9142;SDS011;54072;47.410;8.446;2023-03-11T14:56:00;3.40;;;2.90;;
9142;SDS011;54072;47.410;8.446;2023-03-11T14:58:30;3.00;;;2.67;;
9142;SDS011;54072;47.410;8.446;2023-03-11T15:01:01;3.03;;;2.73;;
9142;SDS011;54072;47.410;8.446;2023-03-11T15:03:31;3.30;;;3.00;;
9142;SDS011;54072;47.410;8.446;2023-03-11T15:06:01;3.57;;;2.73;;
9142;SDS011;54072;47.410;8.446;2023-03-11T15:08:31;3.17;;;2.87;;
9142;SDS011;54072;47.410;8.446;2023-03-11T15:11:02;2.97;;;2.77;;
9142;SDS011;54072;47.410;8.446;2023-03-11T15:13:35;3.67;;;3.27;;
9142;SDS011;54072;47.410;8.446;2023-03-11T15:16:03;3.53;;;2.90;;
9142;SDS011;54072;47.410;8.446;2023-03-11T15:18:33;3.50;;;3.20;;
9142;SDS011;54072;47.410;8.446;2023-03-11T15:21:05;3.17;;;2.53;;
9142;SDS011;54072;47.410;8.446;2023-03-11T15:23:37;3.00;;;2.70;;
9142;SDS011;54072;47.410;8.446;2023-03-11T15:26:05;4.37;;;2.83;;
9142;SDS011;54072;47.410;8.446;2023-03-11T15:28:41;3.53;;;2.90;;
9142;SDS011;54072;47.410;8.446;2023-03-11T15:31:16;3.13;;;2.83;;
9142;SDS011;54072;47.410;8.446;2023-03-11T15:33:52;3.93;;;3.53;;
9142;SDS011;54072;47.410;8.446;2023-03-11T15:36:28;4.33;;;3.80;;
9142;SDS011;54072;47.410;8.446;2023-03-11T15:39:10;3.53;;;3.23;;